createdAt,value
2019-01-23T00:00:03.449Z,-7.85
2019-01-23T00:01:09.611Z,-7.92
2019-01-23T00:02:15.978Z,-8.03
2019-01-23T00:03:21.986Z,-8.04
2019-01-23T00:04:28.363Z,-8.05
2019-01-23T00:05:34.721Z,-8.04
2019-01-23T00:06:41.125Z,-8.11
2019-01-23T00:07:47.465Z,-8.09
2019-01-23T00:08:54.337Z,-8.12
2019-01-23T00:10:00.999Z,-8.14
2019-01-23T00:11:07.866Z,-8.10
2019-01-23T00:12:14.515Z,-8.14
2019-01-23T00:13:20.585Z,-8.20
2019-01-23T00:14:26.932Z,-8.14
2019-01-23T00:15:32.926Z,-8.13
2019-01-23T00:16:39.301Z,-8.16
2019-01-23T00:17:45.677Z,-8.11
2019-01-23T00:18:52.016Z,-8.06
2019-01-23T00:19:59.307Z,-8.08
2019-01-23T00:21:04.956Z,-8.11
2019-01-23T00:22:11.257Z,-8.06
2019-01-23T00:23:17.286Z,-8.06
2019-01-23T00:24:23.656Z,-8.12
2019-01-23T00:25:29.996Z,-8.15
2019-01-23T00:26:36.387Z,-8.15
2019-01-23T00:27:42.730Z,-8.19
2019-01-23T00:28:49.074Z,-8.12
2019-01-23T00:29:55.397Z,-8.15
2019-01-23T00:31:02.208Z,-8.16
2019-01-23T00:32:09.108Z,-8.18
2019-01-23T00:33:15.474Z,-8.18
2019-01-23T00:34:21.453Z,-8.14
2019-01-23T00:35:27.842Z,-8.16
2019-01-23T00:36:34.237Z,-8.18
2019-01-23T00:37:40.564Z,-8.18
2019-01-23T00:38:46.937Z,-8.24
2019-01-23T00:39:53.343Z,-8.30
2019-01-23T00:40:59.712Z,-8.44
2019-01-23T00:42:05.725Z,-8.49
2019-01-23T00:43:12.104Z,-8.44
2019-01-23T00:44:18.487Z,-8.22
2019-01-23T00:45:24.877Z,-8.14
2019-01-23T00:46:31.213Z,-8.15
2019-01-23T00:47:37.504Z,-8.22
2019-01-23T00:48:43.486Z,-8.22
2019-01-23T00:49:49.815Z,-8.09
2019-01-23T00:50:56.187Z,-7.95
2019-01-23T00:52:03.317Z,-7.89
2019-01-23T00:53:10.322Z,-7.77
2019-01-23T00:54:16.388Z,-8.02
2019-01-23T00:55:22.700Z,-8.21
2019-01-23T00:56:29.120Z,-8.18
2019-01-23T00:57:35.578Z,-8.18
2019-01-23T00:58:41.971Z,-8.26
2019-01-23T00:59:48.362Z,-8.28
2019-01-23T01:00:54.412Z,-8.33
2019-01-23T01:02:00.753Z,-8.24
2019-01-23T01:03:06.460Z,-8.28
2019-01-23T01:04:13.791Z,-8.26
2019-01-23T01:05:19.446Z,-8.31
2019-01-23T01:06:26.081Z,-8.31
2019-01-23T01:07:32.509Z,-8.36
2019-01-23T01:08:38.873Z,-8.33
2019-01-23T01:09:44.816Z,-8.24
2019-01-23T01:10:50.802Z,-8.29
2019-01-23T01:11:57.174Z,-8.28
2019-01-23T01:13:04.002Z,-8.24
2019-01-23T01:14:10.445Z,-8.26
2019-01-23T01:15:16.105Z,-8.36
2019-01-23T01:16:22.470Z,-8.31
2019-01-23T01:17:28.887Z,-8.14
2019-01-23T01:18:35.258Z,-8.21
2019-01-23T01:19:41.647Z,-8.24
2019-01-23T01:20:48.029Z,-8.28
2019-01-23T01:21:54.394Z,-8.31
2019-01-23T01:23:00.759Z,-8.29
2019-01-23T01:24:06.777Z,-8.25
2019-01-23T01:25:14.141Z,-8.23
2019-01-23T01:26:20.550Z,-8.21
2019-01-23T01:27:26.872Z,-8.13
2019-01-23T01:28:33.208Z,-7.85
2019-01-23T01:29:39.582Z,-7.88
2019-01-23T01:30:45.560Z,-7.95
2019-01-23T01:31:51.866Z,-8.01
2019-01-23T01:32:58.273Z,-8.04
2019-01-23T01:34:05.230Z,-7.92
2019-01-23T01:35:11.326Z,-7.70
2019-01-23T01:36:17.369Z,-7.71
2019-01-23T01:37:23.695Z,-7.90
2019-01-23T01:38:30.000Z,-7.84
2019-01-23T01:39:36.316Z,-7.94
2019-01-23T01:40:42.628Z,-7.98
2019-01-23T01:41:48.608Z,-8.09
2019-01-23T01:42:54.973Z,-8.10
2019-01-23T01:44:01.352Z,-7.91
2019-01-23T01:45:07.015Z,-7.96
2019-01-23T01:46:13.333Z,-7.97
2019-01-23T01:47:19.340Z,-7.94
2019-01-23T01:48:25.379Z,-7.95
2019-01-23T01:49:31.739Z,-7.91
2019-01-23T01:50:38.095Z,-7.89
2019-01-23T01:51:44.107Z,-7.89
2019-01-23T01:52:50.145Z,-7.84
2019-01-23T01:53:56.554Z,-7.89
2019-01-23T01:55:03.652Z,-7.83
2019-01-23T01:56:10.533Z,-7.77
2019-01-23T01:57:16.914Z,-7.75
2019-01-23T01:58:23.316Z,-7.71
2019-01-23T01:59:29.756Z,-7.69
2019-01-23T02:00:35.489Z,-7.77
2019-01-23T02:01:40.474Z,-7.85
2019-01-23T02:02:46.791Z,-7.89
2019-01-23T02:03:53.164Z,-7.88
2019-01-23T02:04:59.548Z,-7.85
2019-01-23T02:06:05.173Z,-7.82
2019-01-23T02:07:11.498Z,-7.80
2019-01-23T02:08:17.908Z,-7.79
2019-01-23T02:09:24.507Z,-7.76
2019-01-23T02:10:31.006Z,-7.81
2019-01-23T02:11:37.345Z,-7.86
2019-01-23T02:12:43.017Z,-7.90
2019-01-23T02:13:49.048Z,-7.86
2019-01-23T02:14:55.450Z,-7.89
2019-01-23T02:16:02.333Z,-7.93
2019-01-23T02:17:09.140Z,-7.89
2019-01-23T02:18:15.483Z,-7.80
2019-01-23T02:19:21.882Z,-7.77
2019-01-23T02:20:27.541Z,-8.02
2019-01-23T02:21:33.905Z,-8.11
2019-01-23T02:22:39.921Z,-8.07
2019-01-23T02:23:46.268Z,-7.85
2019-01-23T02:24:52.648Z,-7.88
2019-01-23T02:25:59.003Z,-7.98
2019-01-23T02:27:04.674Z,-8.00
2019-01-23T02:28:10.624Z,-8.10
2019-01-23T02:29:16.996Z,-8.06
2019-01-23T02:30:22.611Z,-7.99
2019-01-23T02:31:29.040Z,-7.66
2019-01-23T02:32:35.441Z,-7.69
2019-01-23T02:33:41.802Z,-7.83
2019-01-23T02:34:48.144Z,-7.97
2019-01-23T02:35:54.479Z,-8.05
2019-01-23T02:37:00.816Z,-7.99
2019-01-23T02:38:07.010Z,-7.75
2019-01-23T02:39:13.398Z,-7.79
2019-01-23T02:40:19.066Z,-7.74
2019-01-23T02:41:25.403Z,-7.84
2019-01-23T02:42:31.804Z,-7.95
2019-01-23T02:43:38.157Z,-7.97
2019-01-23T02:44:44.530Z,-8.04
2019-01-23T02:45:50.933Z,-7.95
2019-01-23T02:46:57.297Z,-7.79
2019-01-23T02:48:03.621Z,-7.95
2019-01-23T02:49:10.023Z,-8.09
2019-01-23T02:50:15.744Z,-8.15
2019-01-23T02:51:22.041Z,-8.21
2019-01-23T02:52:28.392Z,-8.27
2019-01-23T02:53:34.755Z,-8.18
2019-01-23T02:54:41.298Z,-7.91
2019-01-23T02:55:47.723Z,-8.09
2019-01-23T02:56:54.071Z,-8.36
2019-01-23T02:58:00.425Z,-8.34
2019-01-23T02:59:06.781Z,-8.41
2019-01-23T03:00:13.193Z,-8.13
2019-01-23T03:01:19.573Z,-8.08
2019-01-23T03:02:26.250Z,-8.37
2019-01-23T03:03:32.779Z,-8.43
2019-01-23T03:04:39.146Z,-8.15
2019-01-23T03:05:45.198Z,-7.83
2019-01-23T03:06:51.610Z,-7.97
2019-01-23T03:07:57.955Z,-8.12
2019-01-23T03:09:03.398Z,-8.05
2019-01-23T03:10:09.218Z,-8.39
2019-01-23T03:11:15.615Z,-8.17
2019-01-23T03:12:22.016Z,-8.31
2019-01-23T03:13:28.377Z,-8.62
2019-01-23T03:14:34.763Z,-8.63
2019-01-23T03:15:41.138Z,-8.35
2019-01-23T03:16:47.530Z,-8.15
2019-01-23T03:17:53.852Z,-8.81
2019-01-23T03:19:00.232Z,-8.82
2019-01-23T03:20:06.095Z,-8.77
2019-01-23T03:21:12.531Z,-8.77
2019-01-23T03:22:18.960Z,-8.50
2019-01-23T03:23:25.114Z,-8.27
2019-01-23T03:24:31.472Z,-8.41
2019-01-23T03:25:37.942Z,-8.86
2019-01-23T03:26:44.317Z,-8.98
2019-01-23T03:27:50.697Z,-9.03
2019-01-23T03:28:57.072Z,-8.98
2019-01-23T03:30:02.736Z,-8.72
2019-01-23T03:31:09.094Z,-8.28
2019-01-23T03:32:15.863Z,-8.31
2019-01-23T03:33:22.299Z,-8.75
2019-01-23T03:34:28.677Z,-8.80
2019-01-23T03:35:35.170Z,-8.83
2019-01-23T03:36:41.516Z,-8.84
2019-01-23T03:37:47.216Z,-8.79
2019-01-23T03:38:53.593Z,-8.81
2019-01-23T03:40:00.037Z,-8.87
2019-01-23T03:41:06.090Z,-8.99
2019-01-23T03:42:12.410Z,-9.04
2019-01-23T03:43:18.789Z,-9.11
2019-01-23T03:44:25.191Z,-9.01
2019-01-23T03:45:31.886Z,-8.94
2019-01-23T03:46:38.213Z,-9.02
2019-01-23T03:47:44.498Z,-8.94
2019-01-23T03:48:50.866Z,-8.92
2019-01-23T03:49:57.252Z,-8.96
2019-01-23T03:51:03.646Z,-8.94
2019-01-23T03:52:09.689Z,-9.09
2019-01-23T03:53:15.937Z,-9.13
2019-01-23T03:54:22.282Z,-9.05
2019-01-23T03:55:28.675Z,-8.75
2019-01-23T03:56:35.100Z,-8.41
2019-01-23T03:57:41.177Z,-8.52
2019-01-23T03:58:47.161Z,-8.62
2019-01-23T03:59:53.536Z,-8.66
2019-01-23T04:00:59.165Z,-8.74
2019-01-23T04:02:04.846Z,-8.81
2019-01-23T04:03:11.331Z,-8.94
2019-01-23T04:04:17.382Z,-8.96
2019-01-23T04:05:23.417Z,-8.88
2019-01-23T04:06:29.445Z,-8.91
2019-01-23T04:07:36.853Z,-8.95
2019-01-23T04:08:42.902Z,-8.90
2019-01-23T04:09:50.016Z,-8.91
2019-01-23T04:10:56.532Z,-8.88
2019-01-23T04:12:02.501Z,-8.95
2019-01-23T04:13:08.924Z,-9.00
2019-01-23T04:14:14.970Z,-9.02
2019-01-23T04:15:21.321Z,-9.01
2019-01-23T04:16:27.728Z,-9.00
2019-01-23T04:17:34.149Z,-9.02
2019-01-23T04:18:40.506Z,-8.99
2019-01-23T04:19:46.819Z,-8.91
2019-01-23T04:20:53.217Z,-9.05
2019-01-23T04:21:59.157Z,-9.10
2019-01-23T04:23:05.297Z,-8.90
2019-01-23T04:24:10.901Z,-8.93
2019-01-23T04:25:16.586Z,-9.04
2019-01-23T04:26:23.025Z,-9.12
2019-01-23T04:27:29.493Z,-9.08
2019-01-23T04:28:36.421Z,-9.00
2019-01-23T04:29:43.077Z,-8.96
2019-01-23T04:30:49.457Z,-8.98
2019-01-23T04:31:56.251Z,-9.08
2019-01-23T04:33:02.657Z,-9.12
2019-01-23T04:34:09.065Z,-9.08
2019-01-23T04:35:15.414Z,-9.12
2019-01-23T04:36:21.831Z,-9.14
2019-01-23T04:37:28.528Z,-9.12
2019-01-23T04:38:34.884Z,-9.17
2019-01-23T04:39:41.629Z,-9.12
2019-01-23T04:40:48.026Z,-9.09
2019-01-23T04:41:54.379Z,-9.05
2019-01-23T04:43:00.769Z,-9.03
2019-01-23T04:44:07.764Z,-9.03
2019-01-23T04:45:14.335Z,-9.03
2019-01-23T04:46:20.698Z,-9.04
2019-01-23T04:47:27.052Z,-9.09
2019-01-23T04:48:33.493Z,-9.02
2019-01-23T04:49:39.834Z,-8.97
2019-01-23T04:52:30.972Z,-9.08
2019-01-23T04:53:37.129Z,-9.05
2019-01-23T04:54:43.564Z,-8.98
2019-01-23T04:55:50.029Z,-8.98
2019-01-23T04:56:56.367Z,-8.98
2019-01-23T04:58:03.294Z,-9.01
2019-01-23T04:59:09.760Z,-8.98
2019-01-23T05:00:15.325Z,-8.94
2019-01-23T05:01:21.517Z,-8.94
2019-01-23T05:02:27.821Z,-8.93
2019-01-23T05:03:34.238Z,-8.93
2019-01-23T05:04:40.558Z,-8.92
2019-01-23T05:05:46.873Z,-8.92
2019-01-23T05:06:53.352Z,-8.88
2019-01-23T05:07:59.692Z,-8.87
2019-01-23T05:09:05.389Z,-8.87
2019-01-23T05:10:11.928Z,-8.87
2019-01-23T05:11:18.407Z,-8.88
2019-01-23T05:12:25.448Z,-8.89
2019-01-23T05:13:32.389Z,-8.88
2019-01-23T05:14:38.741Z,-8.91
2019-01-23T05:15:45.079Z,-8.94
2019-01-23T05:16:51.421Z,-8.97
2019-01-23T05:17:57.791Z,-8.99
2019-01-23T05:19:03.792Z,-8.96
2019-01-23T05:20:10.162Z,-8.98
2019-01-23T05:21:16.970Z,-8.98
2019-01-23T05:22:23.393Z,-8.96
2019-01-23T05:23:29.877Z,-8.97
2019-01-23T05:24:36.284Z,-9.02
2019-01-23T05:25:42.647Z,-8.98
2019-01-23T05:26:49.017Z,-9.02
2019-01-23T05:27:55.565Z,-8.98
2019-01-23T05:29:01.994Z,-8.94
2019-01-23T05:30:11.578Z,-8.97
2019-01-23T05:31:18.254Z,-8.97
2019-01-23T05:32:24.760Z,-8.99
2019-01-23T05:33:31.128Z,-8.99
2019-01-23T05:34:37.659Z,-8.94
2019-01-23T05:35:43.970Z,-8.92
2019-01-23T05:36:50.300Z,-8.96
2019-01-23T05:37:56.682Z,-8.92
2019-01-23T05:39:02.809Z,-8.94
2019-01-23T05:40:08.760Z,-8.94
2019-01-23T05:41:15.519Z,-9.07
2019-01-23T05:42:21.904Z,-9.05
2019-01-23T05:43:28.297Z,-9.07
2019-01-23T05:44:34.676Z,-9.09
2019-01-23T05:45:40.960Z,-9.01
2019-01-23T05:46:47.344Z,-9.02
2019-01-23T05:47:53.710Z,-9.01
2019-01-23T05:49:00.098Z,-9.03
2019-01-23T05:50:06.553Z,-9.01
2019-01-23T05:51:12.922Z,-8.96
2019-01-23T05:52:19.324Z,-8.98
2019-01-23T05:53:25.740Z,-9.00
2019-01-23T05:54:32.175Z,-8.94
2019-01-23T05:55:38.593Z,-8.94
2019-01-23T05:56:44.990Z,-8.92
2019-01-23T05:57:51.344Z,-8.92
2019-01-23T05:58:57.725Z,-8.84
2019-01-23T06:00:03.349Z,-8.82
2019-01-23T06:01:09.728Z,-8.87
2019-01-23T06:02:15.794Z,-8.80
2019-01-23T06:03:22.325Z,-8.76
2019-01-23T06:04:28.369Z,-8.81
2019-01-23T06:05:34.846Z,-8.70
2019-01-23T06:06:41.178Z,-8.64
2019-01-23T06:07:47.524Z,-8.58
2019-01-23T06:08:53.565Z,-8.65
2019-01-23T06:09:59.988Z,-8.78
2019-01-23T06:11:05.995Z,-8.86
2019-01-23T06:12:12.383Z,-8.90
2019-01-23T06:13:19.032Z,-8.94
2019-01-23T06:14:25.084Z,-8.91
2019-01-23T06:15:31.485Z,-8.82
2019-01-23T06:16:38.365Z,-8.87
2019-01-23T06:17:44.849Z,-8.86
2019-01-23T06:18:51.276Z,-8.87
2019-01-23T06:19:57.623Z,-8.85
2019-01-23T06:21:03.670Z,-8.84
2019-01-23T06:22:10.044Z,-8.84
2019-01-23T06:23:16.422Z,-8.83
2019-01-23T06:24:22.764Z,-8.82
2019-01-23T06:25:29.115Z,-8.83
2019-01-23T06:26:35.457Z,-8.87
2019-01-23T06:27:42.274Z,-8.90
2019-01-23T06:28:48.723Z,-8.87
2019-01-23T06:29:55.043Z,-8.86
2019-01-23T06:31:01.406Z,-8.88
2019-01-23T06:32:07.896Z,-8.85
2019-01-23T06:33:14.256Z,-8.79
2019-01-23T06:34:20.728Z,-8.81
2019-01-23T06:35:26.728Z,-8.71
2019-01-23T06:36:33.085Z,-8.77
2019-01-23T06:37:39.137Z,-8.81
2019-01-23T06:38:45.492Z,-8.76
2019-01-23T06:39:51.852Z,-8.69
2019-01-23T06:40:58.182Z,-8.69
2019-01-23T06:42:04.171Z,-8.69
2019-01-23T06:43:10.555Z,-8.75
2019-01-23T06:44:17.032Z,-8.75
2019-01-23T06:45:23.346Z,-8.78
2019-01-23T06:46:29.699Z,-8.74
2019-01-23T06:47:35.675Z,-8.73
2019-01-23T06:48:42.086Z,-8.78
2019-01-23T06:49:48.523Z,-8.81
2019-01-23T06:50:54.879Z,-8.82
2019-01-23T06:52:01.207Z,-8.76
2019-01-23T06:53:13.825Z,-8.84
2019-01-23T06:54:13.647Z,-8.85
2019-01-23T06:55:19.332Z,-8.91
2019-01-23T06:56:25.729Z,-8.89
2019-01-23T06:57:32.064Z,-8.86
2019-01-23T06:58:38.396Z,-8.88
2019-01-23T06:59:44.717Z,-8.86
2019-01-23T07:00:51.035Z,-8.86
2019-01-23T07:01:56.763Z,-8.88
2019-01-23T07:03:02.440Z,-8.84
2019-01-23T07:04:08.802Z,-8.91
2019-01-23T07:05:14.497Z,-8.90
2019-01-23T07:06:20.872Z,-8.86
2019-01-23T07:07:27.175Z,-8.87
2019-01-23T07:08:33.550Z,-8.87
2019-01-23T07:09:39.958Z,-8.90
2019-01-23T07:10:47.307Z,-8.89
2019-01-23T07:11:53.875Z,-8.85
2019-01-23T07:13:00.226Z,-8.86
2019-01-23T07:14:06.610Z,-8.87
2019-01-23T07:15:12.686Z,-8.91
2019-01-23T07:16:19.042Z,-8.91
2019-01-23T07:17:25.512Z,-8.92
2019-01-23T07:18:31.918Z,-8.96
2019-01-23T07:19:38.314Z,-8.89
2019-01-23T07:20:44.664Z,-8.85
2019-01-23T07:21:51.060Z,-8.87
2019-01-23T07:22:57.407Z,-8.85
2019-01-23T07:24:03.812Z,-8.81
2019-01-23T07:25:09.517Z,-8.80
2019-01-23T07:26:15.879Z,-8.75
2019-01-23T07:27:22.289Z,-8.76
2019-01-23T07:28:28.683Z,-8.70
2019-01-23T07:29:35.485Z,-8.64
2019-01-23T07:30:41.405Z,-8.62
2019-01-23T07:31:47.959Z,-8.66
2019-01-23T07:32:54.186Z,-8.65
2019-01-23T07:34:00.405Z,-8.56
2019-01-23T07:35:06.379Z,-8.56
2019-01-23T07:36:12.569Z,-8.53
2019-01-23T07:37:19.160Z,-8.49
2019-01-23T07:38:25.524Z,-8.47
2019-01-23T07:39:31.950Z,-8.46
2019-01-23T07:40:38.409Z,-8.42
2019-01-23T07:41:45.711Z,-8.45
2019-01-23T07:42:52.510Z,-8.48
2019-01-23T07:43:58.893Z,-8.54
2019-01-23T07:45:05.234Z,-8.64
2019-01-23T07:46:11.638Z,-8.57
2019-01-23T07:47:17.993Z,-8.45
2019-01-23T07:48:24.367Z,-8.38
2019-01-23T07:49:30.757Z,-8.32
2019-01-23T07:50:37.117Z,-8.24
2019-01-23T07:51:43.500Z,-8.28
2019-01-23T07:52:49.586Z,-8.24
2019-01-23T07:53:55.913Z,-8.29
2019-01-23T07:55:02.275Z,-8.29
2019-01-23T07:56:08.811Z,-8.31
2019-01-23T07:57:15.180Z,-8.22
2019-01-23T07:58:21.526Z,-8.35
2019-01-23T07:59:27.956Z,-8.38
2019-01-23T08:00:34.428Z,-8.38
2019-01-23T08:01:40.457Z,-8.32
2019-01-23T08:02:46.202Z,-8.34
2019-01-23T08:03:52.562Z,-8.44
2019-01-23T08:04:59.013Z,-8.45
2019-01-23T08:06:05.405Z,-8.37
2019-01-23T08:07:11.825Z,-8.40
2019-01-23T08:08:18.162Z,-8.38
2019-01-23T08:09:24.556Z,-8.33
2019-01-23T08:10:31.042Z,-8.35
2019-01-23T08:11:37.442Z,-8.37
2019-01-23T08:12:43.090Z,-8.37
2019-01-23T08:13:49.547Z,-8.38
2019-01-23T08:14:55.911Z,-8.36
2019-01-23T08:16:02.259Z,-8.34
2019-01-23T08:17:08.330Z,-8.24
2019-01-23T08:18:14.458Z,-8.21
2019-01-23T08:19:20.843Z,-8.21
2019-01-23T08:20:26.658Z,-8.17
2019-01-23T08:21:33.116Z,-8.10
2019-01-23T08:22:39.506Z,-8.15
2019-01-23T08:23:45.867Z,-8.14
2019-01-23T08:24:52.489Z,-8.14
2019-01-23T08:25:58.947Z,-8.12
2019-01-23T08:27:07.129Z,-8.03
2019-01-23T08:28:10.884Z,-8.05
2019-01-23T08:29:17.297Z,-8.01
2019-01-23T08:30:23.851Z,-7.90
2019-01-23T08:31:29.952Z,-7.80
2019-01-23T08:32:35.744Z,-7.80
2019-01-23T08:33:42.144Z,-7.83
2019-01-23T08:34:48.531Z,-7.71
2019-01-23T08:35:54.580Z,-7.66
2019-01-23T08:37:00.952Z,-7.57
2019-01-23T08:38:07.391Z,-7.50
2019-01-23T08:39:13.787Z,-7.43
2019-01-23T08:40:19.544Z,-7.42
2019-01-23T08:41:25.907Z,-7.37
2019-01-23T08:42:32.273Z,-7.30
2019-01-23T08:43:38.678Z,-7.14
2019-01-23T08:44:45.042Z,-7.22
2019-01-23T08:45:51.703Z,-7.11
2019-01-23T08:46:58.069Z,-7.06
2019-01-23T08:48:04.097Z,-7.10
2019-01-23T08:49:10.509Z,-7.12
2019-01-23T09:02:20.131Z,-6.83
2019-01-23T09:03:26.503Z,-6.79
2019-01-23T09:04:32.892Z,-6.76
2019-01-23T09:05:39.310Z,-6.75
2019-01-23T09:06:45.706Z,-6.71
2019-01-23T09:07:51.767Z,-6.80
2019-01-23T09:08:58.149Z,-6.75
2019-01-23T09:10:03.803Z,-6.70
2019-01-23T09:11:10.494Z,-6.67
2019-01-23T09:12:17.037Z,-6.65
2019-01-23T09:13:23.495Z,-6.62
2019-01-23T09:14:29.902Z,-6.59
2019-01-23T09:15:35.945Z,-6.45
2019-01-23T09:16:42.379Z,-6.51
2019-01-23T09:17:48.371Z,-6.50
2019-01-23T09:18:53.989Z,-6.42
2019-01-23T09:20:00.423Z,-6.34
2019-01-23T09:21:06.794Z,-6.33
2019-01-23T09:22:13.250Z,-6.28
2019-01-23T09:23:19.566Z,-6.23
2019-01-23T09:24:25.930Z,-6.27
2019-01-23T09:25:31.945Z,-6.22
2019-01-23T09:26:38.334Z,-6.26
2019-01-23T09:27:44.339Z,-6.37
2019-01-23T09:28:50.922Z,-6.39
2019-01-23T09:29:57.309Z,-6.25
2019-01-23T09:31:05.655Z,-6.17
2019-01-23T09:32:18.748Z,-6.10
2019-01-23T09:33:29.403Z,-6.02
2019-01-23T09:34:36.484Z,-6.06
2019-01-23T09:35:43.540Z,-6.00
2019-01-23T09:37:05.759Z,-5.97
2019-01-23T09:38:14.772Z,-5.98
2019-01-23T09:39:30.412Z,-5.97
2019-01-23T09:40:36.079Z,-5.98
2019-01-23T09:41:49.353Z,-5.98
2019-01-23T09:43:00.505Z,-5.92
2019-01-23T09:44:22.017Z,-5.90
2019-01-23T09:45:30.733Z,-5.84
2019-01-23T09:46:53.002Z,-5.78
2019-01-23T09:48:10.131Z,-5.82
2019-01-23T09:49:19.429Z,-5.80
2019-01-23T09:50:34.604Z,-5.73
2019-01-23T09:53:24.502Z,-5.71
2019-01-23T09:54:30.612Z,-5.72
2019-01-23T09:55:36.991Z,-5.67
2019-01-23T09:56:42.663Z,-5.61
2019-01-23T09:57:48.308Z,-5.62
2019-01-23T09:58:54.665Z,-5.57
2019-01-23T10:00:01.086Z,-5.48
2019-01-23T10:01:07.443Z,-5.39
2019-01-23T10:02:13.822Z,-5.46
2019-01-23T10:03:23.051Z,-5.45
2019-01-23T10:04:25.840Z,-5.46
2019-01-23T10:05:32.262Z,-5.47
2019-01-23T10:06:38.305Z,-5.51
2019-01-23T10:07:44.694Z,-5.46
2019-01-23T10:08:51.026Z,-5.43
2019-01-23T10:09:57.442Z,-5.30
2019-01-23T10:11:03.817Z,-5.26
2019-01-23T10:12:09.859Z,-5.29
2019-01-23T10:13:16.203Z,-5.26
2019-01-23T10:14:22.215Z,-5.34
2019-01-23T10:15:33.269Z,-5.30
2019-01-23T10:16:39.562Z,-5.25
2019-01-23T10:17:46.166Z,-5.21
2019-01-23T10:18:56.103Z,-5.18
2019-01-23T10:19:59.081Z,-5.14
2019-01-23T10:21:04.750Z,-5.21
2019-01-23T10:22:10.743Z,-5.23
2019-01-23T10:23:17.137Z,-5.16
2019-01-23T10:24:23.483Z,-5.08
2019-01-23T10:25:29.903Z,-4.98
2019-01-23T10:26:36.340Z,-5.01
2019-01-23T10:27:42.721Z,-4.83
2019-01-23T10:28:49.104Z,-4.93
2019-01-23T10:29:55.500Z,-4.84
2019-01-23T10:31:06.544Z,-4.81
2019-01-23T10:32:07.981Z,-4.82
2019-01-23T10:33:13.985Z,-4.80
2019-01-23T10:34:20.415Z,-4.81
2019-01-23T10:35:26.131Z,-4.77
2019-01-23T10:36:32.520Z,-4.76
2019-01-23T10:37:38.508Z,-4.71
2019-01-23T10:38:44.859Z,-4.76
2019-01-23T10:39:52.317Z,-4.74
2019-01-23T10:40:57.678Z,-4.72
2019-01-23T10:42:03.369Z,-4.68
2019-01-23T10:43:09.387Z,-4.68
2019-01-23T10:44:15.699Z,-4.64
2019-01-23T10:45:21.755Z,-4.68
2019-01-23T10:46:28.655Z,-4.62
2019-01-23T10:47:34.669Z,-4.50
2019-01-23T10:48:41.021Z,-4.44
2019-01-23T10:49:47.335Z,-4.42
2019-01-23T10:50:53.368Z,-4.56
2019-01-23T10:51:59.349Z,-4.48
2019-01-23T10:53:05.376Z,-4.50
2019-01-23T10:54:11.435Z,-4.39
2019-01-23T10:55:17.856Z,-4.26
2019-01-23T10:56:23.986Z,-4.29
2019-01-23T10:57:30.013Z,-4.36
2019-01-23T10:58:36.367Z,-4.46
2019-01-23T10:59:42.743Z,-4.48
2019-01-23T11:00:49.158Z,-4.39
2019-01-23T11:01:55.124Z,-4.34
2019-01-23T11:03:01.084Z,-4.38
2019-01-23T11:04:06.797Z,-4.39
2019-01-23T11:05:12.504Z,-4.36
2019-01-23T11:06:18.917Z,-4.34
2019-01-23T11:07:25.282Z,-4.17
2019-01-23T11:08:31.706Z,-4.18
2019-01-23T11:09:38.134Z,-4.26
2019-01-23T11:10:44.119Z,-4.30
2019-01-23T11:11:50.989Z,-4.29
2019-01-23T11:12:57.477Z,-4.27
2019-01-23T11:14:03.963Z,-4.31
2019-01-23T11:15:09.626Z,-4.22
2019-01-23T11:16:15.986Z,-4.23
2019-01-23T11:17:22.352Z,-4.19
2019-01-23T11:18:28.698Z,-4.17
2019-01-23T11:19:34.651Z,-4.11
2019-01-23T11:20:40.633Z,-4.05
2019-01-23T11:21:46.657Z,-4.04
2019-01-23T11:22:52.956Z,-4.00
2019-01-23T11:23:59.286Z,-3.86
2019-01-23T11:25:04.972Z,-3.92
2019-01-23T11:26:11.050Z,-3.89
2019-01-23T11:27:17.406Z,-3.94
2019-01-23T11:28:23.798Z,-3.99
2019-01-23T11:29:30.193Z,-3.90
2019-01-23T11:30:35.908Z,-3.93
2019-01-23T11:31:42.244Z,-3.94
2019-01-23T11:32:48.294Z,-3.88
2019-01-23T11:33:54.712Z,-3.83
2019-01-23T11:35:01.118Z,-3.91
2019-01-23T11:36:07.523Z,-3.99
2019-01-23T11:37:14.142Z,-3.91
2019-01-23T11:38:20.119Z,-3.94
2019-01-23T11:39:26.447Z,-3.89
2019-01-23T11:40:32.170Z,-3.71
2019-01-23T11:41:38.135Z,-3.69
2019-01-23T11:42:44.468Z,-3.74
2019-01-23T11:43:50.496Z,-3.78
2019-01-23T11:44:56.898Z,-3.82
2019-01-23T11:46:03.295Z,-3.88
2019-01-23T11:47:09.270Z,-3.80
2019-01-23T11:48:15.665Z,-3.70
2019-01-23T11:49:21.986Z,-3.73
2019-01-23T11:50:28.364Z,-3.66
2019-01-23T11:51:34.777Z,-3.70
2019-01-23T11:52:40.484Z,-3.79
2019-01-23T11:53:46.852Z,-3.83
2019-01-23T11:54:53.254Z,-3.80
2019-01-23T11:55:59.718Z,-3.73
2019-01-23T11:57:05.481Z,-3.67
2019-01-23T11:58:12.656Z,-3.66
2019-01-23T11:59:19.958Z,-3.69
2019-01-23T12:00:25.856Z,-3.80
2019-01-23T12:01:31.841Z,-3.69
2019-01-23T12:02:38.250Z,-3.61
2019-01-23T12:03:44.614Z,-3.58
2019-01-23T12:04:50.954Z,-3.58
2019-01-23T12:05:57.390Z,-3.62
2019-01-23T12:07:03.421Z,-3.57
2019-01-23T12:08:09.151Z,-3.62
2019-01-23T12:09:14.802Z,-3.67
2019-01-23T12:10:20.425Z,-3.76
2019-01-23T12:11:26.837Z,-3.73
2019-01-23T12:12:33.287Z,-3.74
2019-01-23T12:13:39.649Z,-3.75
2019-01-23T12:14:45.697Z,-3.67
2019-01-23T12:15:52.114Z,-3.64
2019-01-23T12:16:58.143Z,-3.59
2019-01-23T12:18:04.109Z,-3.57
2019-01-23T12:19:10.753Z,-3.51
2019-01-23T12:20:16.975Z,-3.55
2019-01-23T12:21:23.167Z,-3.51
2019-01-23T12:22:29.612Z,-3.53
2019-01-23T12:23:36.009Z,-3.55
2019-01-23T12:24:42.436Z,-3.56
2019-01-23T12:25:48.781Z,-3.61
2019-01-23T12:26:55.196Z,-3.52
2019-01-23T12:28:01.564Z,-3.50
2019-01-23T12:29:07.610Z,-3.62
2019-01-23T12:30:17.779Z,-3.62
2019-01-23T12:31:24.182Z,-3.55
2019-01-23T12:32:30.565Z,-3.59
2019-01-23T12:33:37.013Z,-3.61
2019-01-23T12:34:43.398Z,-3.61
2019-01-23T12:35:49.388Z,-3.64
2019-01-23T12:36:55.773Z,-3.61
2019-01-23T12:38:01.792Z,-3.66
2019-01-23T12:39:07.849Z,-3.66
2019-01-23T12:40:14.977Z,-3.61
2019-01-23T12:41:21.931Z,-3.60
2019-01-23T12:42:29.014Z,-3.62
2019-01-23T12:43:35.882Z,-3.64
2019-01-23T12:44:41.543Z,-3.67
2019-01-23T12:45:47.612Z,-3.72
2019-01-23T12:46:53.588Z,-3.66
2019-01-23T12:47:59.541Z,-3.63
2019-01-23T12:49:05.947Z,-3.62
2019-01-23T12:50:11.646Z,-3.65
2019-01-23T12:51:19.050Z,-3.54
2019-01-23T12:52:23.989Z,-3.49
2019-01-23T12:53:30.317Z,-3.53
2019-01-23T12:54:36.317Z,-3.50
2019-01-23T12:55:42.666Z,-3.53
2019-01-23T12:56:49.123Z,-3.57
2019-01-23T12:57:55.142Z,-3.53
2019-01-23T12:59:01.497Z,-3.48
2019-01-23T13:00:12.246Z,-3.41
2019-01-23T13:01:18.601Z,-3.38
2019-01-23T13:02:24.979Z,-3.33
2019-01-23T13:03:31.416Z,-3.25
2019-01-23T13:04:37.797Z,-3.24
2019-01-23T13:05:43.793Z,-3.35
2019-01-23T13:06:49.870Z,-3.32
2019-01-23T13:07:55.562Z,-3.29
2019-01-23T13:09:01.928Z,-3.27
2019-01-23T13:10:08.632Z,-3.21
2019-01-23T13:11:14.680Z,-3.18
2019-01-23T13:12:21.880Z,-3.16
2019-01-23T13:13:28.335Z,-3.18
2019-01-23T13:14:34.387Z,-3.14
2019-01-23T13:15:41.727Z,-3.15
2019-01-23T13:16:48.235Z,-3.07
2019-01-23T13:17:53.964Z,-3.02
2019-01-23T13:19:00.315Z,-3.04
2019-01-23T13:20:06.808Z,-2.98
2019-01-23T13:21:13.269Z,-2.95
2019-01-23T13:22:19.723Z,-2.84
2019-01-23T13:23:26.194Z,-2.79
2019-01-23T13:24:32.680Z,-2.89
2019-01-23T13:25:39.053Z,-2.84
2019-01-23T13:26:45.112Z,-2.91
2019-01-23T13:27:50.785Z,-3.01
2019-01-23T13:28:56.792Z,-3.02
2019-01-23T13:30:02.828Z,-2.96
2019-01-23T13:31:09.242Z,-2.86
2019-01-23T13:32:15.654Z,-2.82
2019-01-23T13:33:22.047Z,-2.67
2019-01-23T13:34:28.458Z,-2.76
2019-01-23T13:35:34.100Z,-2.73
2019-01-23T13:36:40.466Z,-2.66
2019-01-23T13:37:46.525Z,-2.62
2019-01-23T13:38:52.894Z,-2.63
2019-01-23T13:39:59.257Z,-2.57
2019-01-23T13:41:05.364Z,-2.53
2019-01-23T13:42:11.387Z,-2.55
2019-01-23T13:43:17.749Z,-2.70
2019-01-23T13:44:24.204Z,-2.76
2019-01-23T13:45:31.232Z,-2.79
2019-01-23T13:46:38.178Z,-2.70
2019-01-23T13:47:44.185Z,-2.82
2019-01-23T13:48:50.598Z,-2.73
2019-01-23T13:49:56.944Z,-2.68
2019-01-23T13:51:02.650Z,-2.71
2019-01-23T13:52:08.683Z,-2.76
2019-01-23T13:53:14.743Z,-2.86
2019-01-23T13:54:21.070Z,-2.84
2019-01-23T13:55:27.080Z,-2.93
2019-01-23T13:56:33.494Z,-2.85
2019-01-23T13:57:40.131Z,-2.89
2019-01-23T13:58:46.509Z,-2.89
2019-01-23T13:59:52.861Z,-3.06
2019-01-23T14:00:59.322Z,-3.10
2019-01-23T14:02:05.021Z,-3.03
2019-01-23T14:03:10.681Z,-3.12
2019-01-23T14:04:17.086Z,-3.10
2019-01-23T14:05:22.841Z,-3.10
2019-01-23T14:06:29.035Z,-3.12
2019-01-23T14:07:35.817Z,-3.12
2019-01-23T14:08:42.249Z,-3.19
2019-01-23T14:09:48.566Z,-3.21
2019-01-23T14:10:54.962Z,-3.24
2019-01-23T14:12:01.925Z,-3.22
2019-01-23T14:13:07.610Z,-3.23
2019-01-23T14:14:14.001Z,-3.25
2019-01-23T14:15:23.938Z,-3.23
2019-01-23T14:16:30.065Z,-3.27
2019-01-23T14:17:36.453Z,-3.23
2019-01-23T14:18:42.851Z,-3.19
2019-01-23T14:19:49.254Z,-3.24
2019-01-23T14:20:55.280Z,-3.25
2019-01-23T14:22:01.343Z,-3.25
2019-01-23T14:23:07.842Z,-3.28
2019-01-23T14:24:14.891Z,-3.23
2019-01-23T14:25:20.873Z,-3.22
2019-01-23T14:26:27.366Z,-3.22
2019-01-23T14:27:33.558Z,-3.29
2019-01-23T14:28:40.614Z,-3.29
2019-01-23T14:29:47.038Z,-3.24
2019-01-23T14:30:53.473Z,-3.26